YM Kaohsiung — MCGF6 — position and weather

sailwx.info

Track history (hours):
 
Tides and Currents Weather Stations Pressure Air Temp Water Temp Dewpoint Dewpoint Depression Visibility Wind Speed Wind Dir Waves Ship Positions

YM Kaohsiung

Last reported at 2015-Aug-28 22:33 UTC. Time now 2015-Aug-31 13:20 UTC.
Position N 03°03' E 100°45'.

Length 260 m; draft 12.5 m.

Type: Cargo ship. MMSI: 235767000.

Date/timePositionNaut miles runAvg speedWind from/ knotsBaromVisibWave heightAir tempDewpointWater temp
2015-Aug-28 22:33N 03°03' E 100°45'2713.5
2015-Aug-28 20:33N 02°46' E 101°06'2914.3
2015-Aug-28 18:33N 02°34' E 101°32'3215.9
2015-Aug-28 16:31N 02°14' E 101°57'3215.4
2015-Aug-28 14:25N 01°54' E 102°23'4214.5
2015-Aug-28 11:32N 01°33' E 102°59'3712.4
2015-Aug-28 08:32N 01°17' E 103°33'  
2015-Aug-26 04:14N 01°11' E 103°40'912.8
2015-Aug-26 03:33N 01°11' E 103°49'1313.5
2015-Aug-26 02:33N 01°15' E 104°01'1211.6
2015-Aug-26 01:33N 01°17' E 104°13'  
Track history (hours):
 
Tides and Currents Weather Stations Pressure Air Temp Water Temp Dewpoint Dewpoint Depression Visibility Wind Speed Wind Dir Waves Ship Positions

YM Kaohsiung

Last reported at 2015-Aug-28 22:33 UTC. Time now 2015-Aug-31 13:20 UTC.
Position N 03°03' E 100°45'.

Length 260 m; draft 12.5 m.

Type: Cargo ship. MMSI: 235767000.

Date/timePositionNaut miles runAvg speedWind from/ knotsBaromVisibWave heightAir tempDewpointWater temp
2015-Aug-28 22:33N 03°03' E 100°45'2713.5
2015-Aug-28 20:33N 02°46' E 101°06'2914.3
2015-Aug-28 18:33N 02°34' E 101°32'3215.9
2015-Aug-28 16:31N 02°14' E 101°57'3215.4
2015-Aug-28 14:25N 01°54' E 102°23'4214.5
2015-Aug-28 11:32N 01°33' E 102°59'3712.4
2015-Aug-28 08:32N 01°17' E 103°33'  
2015-Aug-26 04:14N 01°11' E 103°40'912.8
2015-Aug-26 03:33N 01°11' E 103°49'1313.5
2015-Aug-26 02:33N 01°15' E 104°01'1211.6
2015-Aug-26 01:33N 01°17' E 104°13'  

Dump ship's entire track history